sensor_id;sensor_type;location;lat;lon;timestamp;temperature;humidity
46608;DHT22;32330;51.936;7.184;2023-02-18T04:48:37;10.40;99.90
46608;DHT22;32330;51.936;7.184;2023-02-18T04:51:05;10.40;99.90
46608;DHT22;32330;51.936;7.184;2023-02-18T04:53:32;10.40;99.90
46608;DHT22;32330;51.936;7.184;2023-02-18T04:55:59;10.40;99.90
46608;DHT22;32330;51.936;7.184;2023-02-18T04:58:26;10.40;99.90
46608;DHT22;32330;51.936;7.184;2023-02-18T05:00:53;10.40;99.90
46608;DHT22;32330;51.936;7.184;2023-02-18T05:03:24;10.40;99.90
46608;DHT22;32330;51.936;7.184;2023-02-18T05:05:52;10.40;99.90
46608;DHT22;32330;51.936;7.184;2023-02-18T05:08:19;10.40;99.90
46608;DHT22;32330;51.936;7.184;2023-02-18T05:10:46;10.40;99.90
46608;DHT22;32330;51.936;7.184;2023-02-18T05:13:13;10.40;99.90
46608;DHT22;32330;51.936;7.184;2023-02-18T05:15:40;10.40;99.90
46608;DHT22;32330;51.936;7.184;2023-02-18T05:18:07;10.40;99.90
46608;DHT22;32330;51.936;7.184;2023-02-18T05:20:34;10.40;99.90
46608;DHT22;32330;51.936;7.184;2023-02-18T05:23:03;10.40;99.90
46608;DHT22;32330;51.936;7.184;2023-02-18T05:25:30;10.40;99.90
46608;DHT22;32330;51.936;7.184;2023-02-18T05:27:57;10.40;99.90
46608;DHT22;32330;51.936;7.184;2023-02-18T05:30:24;10.40;99.90
46608;DHT22;32330;51.936;7.184;2023-02-18T05:32:51;10.40;99.90
46608;DHT22;32330;51.936;7.184;2023-02-18T05:35:18;10.40;99.90
46608;DHT22;32330;51.936;7.184;2023-02-18T05:37:45;10.40;99.90
46608;DHT22;32330;51.936;7.184;2023-02-18T05:40:13;10.40;99.90
46608;DHT22;32330;51.936;7.184;2023-02-18T05:42:40;10.40;99.90
46608;DHT22;32330;51.936;7.184;2023-02-18T05:45:10;10.40;99.90
46608;DHT22;32330;51.936;7.184;2023-02-18T05:47:37;10.40;99.90
46608;DHT22;32330;51.936;7.184;2023-02-18T05:50:05;10.50;99.90
46608;DHT22;32330;51.936;7.184;2023-02-18T05:52:32;10.40;99.90
46608;DHT22;32330;51.936;7.184;2023-02-18T05:54:59;10.40;99.90
46608;DHT22;32330;51.936;7.184;2023-02-18T05:57:28;10.40;99.90
46608;DHT22;32330;51.936;7.184;2023-02-18T05:59:54;10.40;99.90
46608;DHT22;32330;51.936;7.184;2023-02-18T06:02:21;10.40;99.90
46608;DHT22;32330;51.936;7.184;2023-02-18T06:04:48;10.40;99.90
46608;DHT22;32330;51.936;7.184;2023-02-18T06:07:15;10.40;99.90
46608;DHT22;32330;51.936;7.184;2023-02-18T06:09:45;10.40;99.90
46608;DHT22;32330;51.936;7.184;2023-02-18T06:12:12;10.40;99.90
46608;DHT22;32330;51.936;7.184;2023-02-18T06:14:40;10.40;99.90
46608;DHT22;32330;51.936;7.184;2023-02-18T06:17:07;10.40;99.90
46608;DHT22;32330;51.936;7.184;2023-02-18T06:19:34;10.40;99.90
46608;DHT22;32330;51.936;7.184;2023-02-18T06:22:02;10.30;99.90
46608;DHT22;32330;51.936;7.184;2023-02-18T06:24:29;10.30;99.90
46608;DHT22;32330;51.936;7.184;2023-02-18T06:26:56;10.30;99.90
46608;DHT22;32330;51.936;7.184;2023-02-18T06:29:23;10.30;99.90
46608;DHT22;32330;51.936;7.184;2023-02-18T06:31:52;10.30;99.90
46608;DHT22;32330;51.936;7.184;2023-02-18T06:34:19;10.30;99.90
46608;DHT22;32330;51.936;7.184;2023-02-18T06:36:46;10.30;99.90
46608;DHT22;32330;51.936;7.184;2023-02-18T06:39:12;10.30;99.90
46608;DHT22;32330;51.936;7.184;2023-02-18T06:41:39;10.30;99.90
46608;DHT22;32330;51.936;7.184;2023-02-18T06:44:07;10.30;99.90
46608;DHT22;32330;51.936;7.184;2023-02-18T06:46:34;10.40;99.90
46608;DHT22;32330;51.936;7.184;2023-02-18T06:49:02;10.30;99.90
46608;DHT22;32330;51.936;7.184;2023-02-18T06:51:29;10.40;99.90
46608;DHT22;32330;51.936;7.184;2023-02-18T06:53:56;10.40;99.90
46608;DHT22;32330;51.936;7.184;2023-02-18T06:56:23;10.30;99.90
46608;DHT22;32330;51.936;7.184;2023-02-18T06:58:50;10.30;99.90
46608;DHT22;32330;51.936;7.184;2023-02-18T07:01:16;10.30;99.90
46608;DHT22;32330;51.936;7.184;2023-02-18T07:03:44;10.30;99.90
46608;DHT22;32330;51.936;7.184;2023-02-18T07:06:12;10.30;99.90
46608;DHT22;32330;51.936;7.184;2023-02-18T07:08:39;10.30;99.90
46608;DHT22;32330;51.936;7.184;2023-02-18T07:11:06;10.30;99.90
46608;DHT22;32330;51.936;7.184;2023-02-18T07:13:33;10.40;99.90
46608;DHT22;32330;51.936;7.184;2023-02-18T07:16:00;10.40;99.90
46608;DHT22;32330;51.936;7.184;2023-02-18T07:18:27;10.30;99.90
46608;DHT22;32330;51.936;7.184;2023-02-18T07:20:54;10.30;99.90
46608;DHT22;32330;51.936;7.184;2023-02-18T07:23:25;10.30;99.90
46608;DHT22;32330;51.936;7.184;2023-02-18T07:26:02;10.30;99.90
46608;DHT22;32330;51.936;7.184;2023-02-18T07:28:29;10.30;99.90
46608;DHT22;32330;51.936;7.184;2023-02-18T07:30:56;10.30;99.90
46608;DHT22;32330;51.936;7.184;2023-02-18T07:33:22;10.30;99.90
46608;DHT22;32330;51.936;7.184;2023-02-18T07:35:52;10.30;99.90
46608;DHT22;32330;51.936;7.184;2023-02-18T07:38:20;10.30;99.90
46608;DHT22;32330;51.936;7.184;2023-02-18T07:40:49;10.40;99.90
46608;DHT22;32330;51.936;7.184;2023-02-18T07:43:16;10.30;99.90
46608;DHT22;32330;51.936;7.184;2023-02-18T07:45:43;10.30;99.90
46608;DHT22;32330;51.936;7.184;2023-02-18T07:48:10;10.40;99.90
46608;DHT22;32330;51.936;7.184;2023-02-18T07:50:38;10.40;99.90
46608;DHT22;32330;51.936;7.184;2023-02-18T07:53:06;10.40;99.90
46608;DHT22;32330;51.936;7.184;2023-02-18T07:55:33;10.30;99.90
46608;DHT22;32330;51.936;7.184;2023-02-18T07:58:28;10.40;99.90
46608;DHT22;32330;51.936;7.184;2023-02-18T08:00:56;10.40;99.90
46608;DHT22;32330;51.936;7.184;2023-02-18T08:03:24;10.40;99.90
46608;DHT22;32330;51.936;7.184;2023-02-18T08:05:52;10.40;99.90
46608;DHT22;32330;51.936;7.184;2023-02-18T08:08:22;10.40;99.90
46608;DHT22;32330;51.936;7.184;2023-02-18T08:10:50;10.40;99.90
46608;DHT22;32330;51.936;7.184;2023-02-18T08:13:17;10.40;99.90
46608;DHT22;32330;51.936;7.184;2023-02-18T08:15:46;10.40;99.90
46608;DHT22;32330;51.936;7.184;2023-02-18T08:18:15;10.40;99.90
46608;DHT22;32330;51.936;7.184;2023-02-18T08:20:43;10.40;99.90
46608;DHT22;32330;51.936;7.184;2023-02-18T08:23:12;10.40;99.90
46608;DHT22;32330;51.936;7.184;2023-02-18T08:25:40;10.40;99.90
46608;DHT22;32330;51.936;7.184;2023-02-18T08:28:10;10.40;99.90
46608;DHT22;32330;51.936;7.184;2023-02-18T08:30:37;10.40;99.90
46608;DHT22;32330;51.936;7.184;2023-02-18T08:33:05;10.40;99.90
46608;DHT22;32330;51.936;7.184;2023-02-18T08:35:33;10.40;99.90
46608;DHT22;32330;51.936;7.184;2023-02-18T08:38:00;10.40;99.90
46608;DHT22;32330;51.936;7.184;2023-02-18T08:40:27;10.40;99.90
46608;DHT22;32330;51.936;7.184;2023-02-18T08:42:53;10.40;99.90
46608;DHT22;32330;51.936;7.184;2023-02-18T08:45:21;10.40;99.90
46608;DHT22;32330;51.936;7.184;2023-02-18T08:47:48;10.40;99.90
46608;DHT22;32330;51.936;7.184;2023-02-18T08:50:17;10.40;99.90
46608;DHT22;32330;51.936;7.184;2023-02-18T08:52:45;10.40;99.90
46608;DHT22;32330;51.936;7.184;2023-02-18T08:55:12;10.40;99.90
46608;DHT22;32330;51.936;7.184;2023-02-18T08:57:39;10.40;99.90
46608;DHT22;32330;51.936;7.184;2023-02-18T09:00:07;10.30;99.90
46608;DHT22;32330;51.936;7.184;2023-02-18T09:02:34;10.40;99.90
46608;DHT22;32330;51.936;7.184;2023-02-18T09:05:02;10.40;99.90
46608;DHT22;32330;51.936;7.184;2023-02-18T09:07:30;10.40;99.90
46608;DHT22;32330;51.936;7.184;2023-02-18T09:09:57;10.40;99.90
46608;DHT22;32330;51.936;7.184;2023-02-18T09:12:24;10.40;99.90
46608;DHT22;32330;51.936;7.184;2023-02-18T09:14:51;10.40;99.90
46608;DHT22;32330;51.936;7.184;2023-02-18T09:17:18;10.30;99.90
46608;DHT22;32330;51.936;7.184;2023-02-18T09:19:45;10.30;99.90
46608;DHT22;32330;51.936;7.184;2023-02-18T09:22:12;10.20;99.90
46608;DHT22;32330;51.936;7.184;2023-02-18T09:24:41;10.20;99.90
46608;DHT22;32330;51.936;7.184;2023-02-18T09:27:08;10.20;99.90
46608;DHT22;32330;51.936;7.184;2023-02-18T09:29:37;10.20;99.90
46608;DHT22;32330;51.936;7.184;2023-02-18T09:32:05;10.20;99.90
46608;DHT22;32330;51.936;7.184;2023-02-18T09:34:33;10.20;99.90
46608;DHT22;32330;51.936;7.184;2023-02-18T09:37:00;10.20;99.90
46608;DHT22;32330;51.936;7.184;2023-02-18T09:39:27;10.20;99.90
46608;DHT22;32330;51.936;7.184;2023-02-18T09:41:57;10.20;99.90
46608;DHT22;32330;51.936;7.184;2023-02-18T09:44:27;10.20;99.90
46608;DHT22;32330;51.936;7.184;2023-02-18T09:46:58;10.20;99.90
46608;DHT22;32330;51.936;7.184;2023-02-18T09:49:29;10.20;99.90
46608;DHT22;32330;51.936;7.184;2023-02-18T09:52:04;10.10;99.90
46608;DHT22;32330;51.936;7.184;2023-02-18T09:54:31;10.10;99.90
46608;DHT22;32330;51.936;7.184;2023-02-18T09:57:00;10.10;99.90
46608;DHT22;32330;51.936;7.184;2023-02-18T09:59:29;10.10;99.90
46608;DHT22;32330;51.936;7.184;2023-02-18T10:01:57;10.10;99.90
46608;DHT22;32330;51.936;7.184;2023-02-18T10:04:27;10.10;99.90
46608;DHT22;32330;51.936;7.184;2023-02-18T10:06:57;10.10;99.90
46608;DHT22;32330;51.936;7.184;2023-02-18T10:09:28;10.10;99.90
46608;DHT22;32330;51.936;7.184;2023-02-18T10:12:02;10.00;99.90
46608;DHT22;32330;51.936;7.184;2023-02-18T10:14:31;10.00;99.90
46608;DHT22;32330;51.936;7.184;2023-02-18T10:17:03;10.00;99.90
46608;DHT22;32330;51.936;7.184;2023-02-18T10:19:33;10.00;99.90
46608;DHT22;32330;51.936;7.184;2023-02-18T10:22:03;10.00;99.90
46608;DHT22;32330;51.936;7.184;2023-02-18T10:24:32;10.00;99.90
46608;DHT22;32330;51.936;7.184;2023-02-18T10:27:03;9.90;99.90
46608;DHT22;32330;51.936;7.184;2023-02-18T10:29:31;9.90;99.90
46608;DHT22;32330;51.936;7.184;2023-02-18T10:32:05;9.90;99.90
46608;DHT22;32330;51.936;7.184;2023-02-18T10:34:39;9.90;99.90
46608;DHT22;32330;51.936;7.184;2023-02-18T10:40:10;9.90;99.90
46608;DHT22;32330;51.936;7.184;2023-02-18T10:42:52;9.90;99.90
46608;DHT22;32330;51.936;7.184;2023-02-18T10:45:30;9.90;99.90
46608;DHT22;32330;51.936;7.184;2023-02-18T10:48:09;9.90;99.90
46608;DHT22;32330;51.936;7.184;2023-02-18T10:50:44;9.90;99.90
46608;DHT22;32330;51.936;7.184;2023-02-18T10:53:13;9.80;99.90
46608;DHT22;32330;51.936;7.184;2023-02-18T10:55:44;9.90;99.90
46608;DHT22;32330;51.936;7.184;2023-02-18T10:58:29;9.90;99.90
46608;DHT22;32330;51.936;7.184;2023-02-18T11:00:58;9.90;99.90
46608;DHT22;32330;51.936;7.184;2023-02-18T11:03:38;9.90;99.90
46608;DHT22;32330;51.936;7.184;2023-02-18T11:06:15;9.90;99.90
46608;DHT22;32330;51.936;7.184;2023-02-18T11:08:43;9.80;99.90
46608;DHT22;32330;51.936;7.184;2023-02-18T11:11:15;9.80;99.90
46608;DHT22;32330;51.936;7.184;2023-02-18T11:13:44;9.80;99.90
46608;DHT22;32330;51.936;7.184;2023-02-18T11:16:11;9.80;99.90
46608;DHT22;32330;51.936;7.184;2023-02-18T11:18:40;9.80;99.90
46608;DHT22;32330;51.936;7.184;2023-02-18T11:21:20;9.80;99.90
46608;DHT22;32330;51.936;7.184;2023-02-18T11:23:53;9.90;99.90
46608;DHT22;32330;51.936;7.184;2023-02-18T11:26:25;9.80;99.90
46608;DHT22;32330;51.936;7.184;2023-02-18T11:29:00;9.80;99.90
46608;DHT22;32330;51.936;7.184;2023-02-18T11:31:38;9.80;99.90
46608;DHT22;32330;51.936;7.184;2023-02-18T11:34:13;9.90;99.90
46608;DHT22;32330;51.936;7.184;2023-02-18T11:36:41;9.90;99.90
46608;DHT22;32330;51.936;7.184;2023-02-18T11:39:17;9.90;99.90
46608;DHT22;32330;51.936;7.184;2023-02-18T11:41:47;9.90;99.90
46608;DHT22;32330;51.936;7.184;2023-02-18T11:44:21;9.80;99.90
46608;DHT22;32330;51.936;7.184;2023-02-18T11:46:58;9.90;99.90
46608;DHT22;32330;51.936;7.184;2023-02-18T11:49:25;9.80;99.90
46608;DHT22;32330;51.936;7.184;2023-02-18T11:51:54;9.80;99.90
46608;DHT22;32330;51.936;7.184;2023-02-18T11:54:29;9.80;99.90
46608;DHT22;32330;51.936;7.184;2023-02-18T11:56:59;9.80;99.90
46608;DHT22;32330;51.936;7.184;2023-02-18T11:59:31;9.80;99.90
46608;DHT22;32330;51.936;7.184;2023-02-18T12:02:02;9.90;99.90
46608;DHT22;32330;51.936;7.184;2023-02-18T12:04:38;9.90;99.90
46608;DHT22;32330;51.936;7.184;2023-02-18T12:07:16;9.90;99.90
46608;DHT22;32330;51.936;7.184;2023-02-18T12:09:48;9.90;99.90
46608;DHT22;32330;51.936;7.184;2023-02-18T12:12:18;9.90;99.90
46608;DHT22;32330;51.936;7.184;2023-02-18T12:14:47;9.90;99.90
46608;DHT22;32330;51.936;7.184;2023-02-18T12:17:28;10.00;99.90
46608;DHT22;32330;51.936;7.184;2023-02-18T12:23:03;10.00;99.90
46608;DHT22;32330;51.936;7.184;2023-02-18T12:25:37;10.00;99.90
46608;DHT22;32330;51.936;7.184;2023-02-18T12:28:16;10.00;99.90
46608;DHT22;32330;51.936;7.184;2023-02-18T12:31:25;10.00;99.90
46608;DHT22;32330;51.936;7.184;2023-02-18T12:34:05;10.00;99.90
46608;DHT22;32330;51.936;7.184;2023-02-18T12:36:45;10.00;99.90
46608;DHT22;32330;51.936;7.184;2023-02-18T12:39:25;10.10;99.90
46608;DHT22;32330;51.936;7.184;2023-02-18T12:42:20;10.10;99.90
46608;DHT22;32330;51.936;7.184;2023-02-18T12:45:02;10.10;99.90
46608;DHT22;32330;51.936;7.184;2023-02-18T12:47:45;10.10;99.90
46608;DHT22;32330;51.936;7.184;2023-02-18T12:50:34;10.20;99.90
46608;DHT22;32330;51.936;7.184;2023-02-18T12:53:23;10.20;99.90
46608;DHT22;32330;51.936;7.184;2023-02-18T12:56:23;10.20;99.90
46608;DHT22;32330;51.936;7.184;2023-02-18T12:59:00;10.20;99.90
46608;DHT22;32330;51.936;7.184;2023-02-18T13:01:35;10.20;99.90
46608;DHT22;32330;51.936;7.184;2023-02-18T13:07:32;10.30;99.90
46608;DHT22;32330;51.936;7.184;2023-02-18T13:10:22;10.30;99.90
46608;DHT22;32330;51.936;7.184;2023-02-18T13:12:56;10.30;99.90
46608;DHT22;32330;51.936;7.184;2023-02-18T13:15:32;10.30;99.90
46608;DHT22;32330;51.936;7.184;2023-02-18T13:18:05;10.20;99.90
46608;DHT22;32330;51.936;7.184;2023-02-18T13:20:38;10.30;99.90
46608;DHT22;32330;51.936;7.184;2023-02-18T13:23:07;10.30;99.90
46608;DHT22;32330;51.936;7.184;2023-02-18T13:25:38;10.30;99.90
46608;DHT22;32330;51.936;7.184;2023-02-18T13:28:10;10.30;99.90
46608;DHT22;32330;51.936;7.184;2023-02-18T13:30:44;10.30;99.90
46608;DHT22;32330;51.936;7.184;2023-02-18T13:33:17;10.20;99.90
46608;DHT22;32330;51.936;7.184;2023-02-18T13:35:53;10.30;99.90
46608;DHT22;32330;51.936;7.184;2023-02-18T13:38:50;10.30;99.90
46608;DHT22;32330;51.936;7.184;2023-02-18T13:41:20;10.20;99.90
46608;DHT22;32330;51.936;7.184;2023-02-18T13:43:47;10.30;99.90
46608;DHT22;32330;51.936;7.184;2023-02-18T13:46:15;10.30;99.90
46608;DHT22;32330;51.936;7.184;2023-02-18T13:48:46;10.30;99.90
46608;DHT22;32330;51.936;7.184;2023-02-18T13:51:16;10.30;99.90
46608;DHT22;32330;51.936;7.184;2023-02-18T13:53:51;10.30;99.90
46608;DHT22;32330;51.936;7.184;2023-02-18T13:56:21;10.30;99.90
46608;DHT22;32330;51.936;7.184;2023-02-18T13:58:50;10.40;99.90
46608;DHT22;32330;51.936;7.184;2023-02-18T14:01:37;10.40;99.90
46608;DHT22;32330;51.936;7.184;2023-02-18T14:07:28;10.40;99.90
46608;DHT22;32330;51.936;7.184;2023-02-18T14:09:58;10.40;99.90
46608;DHT22;32330;51.936;7.184;2023-02-18T14:12:35;10.40;99.90
46608;DHT22;32330;51.936;7.184;2023-02-18T14:18:25;10.50;99.90
46608;DHT22;32330;51.936;7.184;2023-02-18T14:21:04;10.40;99.90
46608;DHT22;32330;51.936;7.184;2023-02-18T14:23:54;10.50;99.90
46608;DHT22;32330;51.936;7.184;2023-02-18T14:26:24;10.50;99.90
46608;DHT22;32330;51.936;7.184;2023-02-18T14:28:55;10.40;99.90
46608;DHT22;32330;51.936;7.184;2023-02-18T14:31:32;10.40;99.90
46608;DHT22;32330;51.936;7.184;2023-02-18T14:39:57;10.40;99.90
46608;DHT22;32330;51.936;7.184;2023-02-18T14:42:36;10.40;99.90
46608;DHT22;32330;51.936;7.184;2023-02-18T14:45:16;10.30;99.90
46608;DHT22;32330;51.936;7.184;2023-02-18T14:48:02;10.40;99.90
46608;DHT22;32330;51.936;7.184;2023-02-18T14:50:34;10.50;99.90
46608;DHT22;32330;51.936;7.184;2023-02-18T14:53:03;10.50;99.90
46608;DHT22;32330;51.936;7.184;2023-02-18T14:55:33;10.50;99.90
46608;DHT22;32330;51.936;7.184;2023-02-18T14:58:02;10.50;99.90
46608;DHT22;32330;51.936;7.184;2023-02-18T15:00:34;10.50;99.90
46608;DHT22;32330;51.936;7.184;2023-02-18T15:03:01;10.50;99.90
46608;DHT22;32330;51.936;7.184;2023-02-18T15:05:30;10.50;99.90
46608;DHT22;32330;51.936;7.184;2023-02-18T15:08:00;10.60;99.90
46608;DHT22;32330;51.936;7.184;2023-02-18T15:10:36;10.60;99.90
46608;DHT22;32330;51.936;7.184;2023-02-18T15:13:07;10.60;99.90
46608;DHT22;32330;51.936;7.184;2023-02-18T15:15:35;10.60;99.90
46608;DHT22;32330;51.936;7.184;2023-02-18T15:18:03;10.60;99.90
46608;DHT22;32330;51.936;7.184;2023-02-18T15:20:33;10.70;99.90
46608;DHT22;32330;51.936;7.184;2023-02-18T15:23:02;10.60;99.90
46608;DHT22;32330;51.936;7.184;2023-02-18T15:25:29;10.60;99.90
46608;DHT22;32330;51.936;7.184;2023-02-18T15:27:56;10.70;99.90
46608;DHT22;32330;51.936;7.184;2023-02-18T15:30:25;10.60;99.90
46608;DHT22;32330;51.936;7.184;2023-02-18T15:32:55;10.60;99.90
46608;DHT22;32330;51.936;7.184;2023-02-18T15:35:25;10.60;99.90
46608;DHT22;32330;51.936;7.184;2023-02-18T15:37:56;10.60;99.90
46608;DHT22;32330;51.936;7.184;2023-02-18T15:40:28;10.60;99.90
46608;DHT22;32330;51.936;7.184;2023-02-18T15:42:58;10.60;99.90
46608;DHT22;32330;51.936;7.184;2023-02-18T15:45:30;10.60;99.90
46608;DHT22;32330;51.936;7.184;2023-02-18T15:47:59;10.60;99.90
46608;DHT22;32330;51.936;7.184;2023-02-18T15:50:29;10.60;99.90
46608;DHT22;32330;51.936;7.184;2023-02-18T15:53:12;10.60;99.90
46608;DHT22;32330;51.936;7.184;2023-02-18T15:55:45;10.50;99.90
46608;DHT22;32330;51.936;7.184;2023-02-18T15:58:15;10.60;99.90
46608;DHT22;32330;51.936;7.184;2023-02-18T16:00:47;10.50;99.90
46608;DHT22;32330;51.936;7.184;2023-02-18T16:03:19;10.60;99.90
46608;DHT22;32330;51.936;7.184;2023-02-18T16:05:47;10.60;99.90
46608;DHT22;32330;51.936;7.184;2023-02-18T16:08:15;10.50;99.90
46608;DHT22;32330;51.936;7.184;2023-02-18T16:10:46;10.50;99.90
46608;DHT22;32330;51.936;7.184;2023-02-18T16:13:16;10.50;99.90
46608;DHT22;32330;51.936;7.184;2023-02-18T16:15:46;10.50;99.90
46608;DHT22;32330;51.936;7.184;2023-02-18T16:18:29;10.60;99.90
46608;DHT22;32330;51.936;7.184;2023-02-18T16:21:02;10.50;99.90
46608;DHT22;32330;51.936;7.184;2023-02-18T16:23:34;10.50;99.90
46608;DHT22;32330;51.936;7.184;2023-02-18T16:26:20;10.50;99.90
46608;DHT22;32330;51.936;7.184;2023-02-18T16:28:50;10.50;99.90
46608;DHT22;32330;51.936;7.184;2023-02-18T16:31:18;10.50;99.90
46608;DHT22;32330;51.936;7.184;2023-02-18T16:33:46;10.50;99.90
46608;DHT22;32330;51.936;7.184;2023-02-18T16:36:15;10.50;99.90
46608;DHT22;32330;51.936;7.184;2023-02-18T16:38:42;10.50;99.90
46608;DHT22;32330;51.936;7.184;2023-02-18T16:41:11;10.50;99.90
46608;DHT22;32330;51.936;7.184;2023-02-18T16:43:41;10.50;99.90
46608;DHT22;32330;51.936;7.184;2023-02-18T16:46:13;10.50;99.90
46608;DHT22;32330;51.936;7.184;2023-02-18T16:48:42;10.50;99.90
46608;DHT22;32330;51.936;7.184;2023-02-18T16:51:12;10.50;99.90
46608;DHT22;32330;51.936;7.184;2023-02-18T16:53:40;10.50;99.90
46608;DHT22;32330;51.936;7.184;2023-02-18T16:56:17;10.50;99.90
46608;DHT22;32330;51.936;7.184;2023-02-18T16:58:45;10.50;99.90
46608;DHT22;32330;51.936;7.184;2023-02-18T17:01:24;10.50;99.90
46608;DHT22;32330;51.936;7.184;2023-02-18T17:03:52;10.50;99.90
46608;DHT22;32330;51.936;7.184;2023-02-18T17:06:19;10.50;99.90
46608;DHT22;32330;51.936;7.184;2023-02-18T17:08:46;10.50;99.90
46608;DHT22;32330;51.936;7.184;2023-02-18T17:11:18;10.40;99.90
46608;DHT22;32330;51.936;7.184;2023-02-18T17:13:50;10.50;99.90
46608;DHT22;32330;51.936;7.184;2023-02-18T17:16:18;10.40;99.90
46608;DHT22;32330;51.936;7.184;2023-02-18T17:18:45;10.40;99.90
46608;DHT22;32330;51.936;7.184;2023-02-18T17:21:13;10.40;99.90
46608;DHT22;32330;51.936;7.184;2023-02-18T17:23:40;10.40;99.90
46608;DHT22;32330;51.936;7.184;2023-02-18T17:26:12;10.40;99.90
46608;DHT22;32330;51.936;7.184;2023-02-18T17:28:40;10.40;99.90
46608;DHT22;32330;51.936;7.184;2023-02-18T17:31:13;10.40;99.90
46608;DHT22;32330;51.936;7.184;2023-02-18T17:33:41;10.40;99.90
46608;DHT22;32330;51.936;7.184;2023-02-18T17:36:09;10.40;99.90
46608;DHT22;32330;51.936;7.184;2023-02-18T17:38:36;10.40;99.90
46608;DHT22;32330;51.936;7.184;2023-02-18T17:41:03;10.40;99.90
46608;DHT22;32330;51.936;7.184;2023-02-18T17:43:31;10.40;99.90
46608;DHT22;32330;51.936;7.184;2023-02-18T17:45:58;10.40;99.90
46608;DHT22;32330;51.936;7.184;2023-02-18T17:48:26;10.40;99.90
46608;DHT22;32330;51.936;7.184;2023-02-18T17:50:54;10.30;99.90
46608;DHT22;32330;51.936;7.184;2023-02-18T17:53:21;10.40;99.90
46608;DHT22;32330;51.936;7.184;2023-02-18T17:55:51;10.40;99.90
46608;DHT22;32330;51.936;7.184;2023-02-18T17:58:18;10.40;99.90
46608;DHT22;32330;51.936;7.184;2023-02-18T18:00:47;10.40;99.90
46608;DHT22;32330;51.936;7.184;2023-02-18T18:03:15;10.40;99.90
46608;DHT22;32330;51.936;7.184;2023-02-18T18:05:44;10.40;99.90
46608;DHT22;32330;51.936;7.184;2023-02-18T18:08:12;10.40;99.90
46608;DHT22;32330;51.936;7.184;2023-02-18T18:10:40;10.40;99.90
46608;DHT22;32330;51.936;7.184;2023-02-18T18:13:16;10.40;99.90
46608;DHT22;32330;51.936;7.184;2023-02-18T18:15:43;10.40;99.90
46608;DHT22;32330;51.936;7.184;2023-02-18T18:18:11;10.40;99.90
46608;DHT22;32330;51.936;7.184;2023-02-18T18:20:40;10.40;99.90
46608;DHT22;32330;51.936;7.184;2023-02-18T18:23:13;10.40;99.90
46608;DHT22;32330;51.936;7.184;2023-02-18T18:25:42;10.40;99.90
46608;DHT22;32330;51.936;7.184;2023-02-18T18:28:09;10.40;99.90
46608;DHT22;32330;51.936;7.184;2023-02-18T18:30:38;10.40;99.90
46608;DHT22;32330;51.936;7.184;2023-02-18T18:33:12;10.40;99.90
46608;DHT22;32330;51.936;7.184;2023-02-18T18:35:40;10.40;99.90
46608;DHT22;32330;51.936;7.184;2023-02-18T18:38:07;10.40;99.90
46608;DHT22;32330;51.936;7.184;2023-02-18T18:40:35;10.40;99.90
46608;DHT22;32330;51.936;7.184;2023-02-18T18:43:03;10.40;99.90
46608;DHT22;32330;51.936;7.184;2023-02-18T18:45:32;10.40;99.90
46608;DHT22;32330;51.936;7.184;2023-02-18T18:48:00;10.40;99.90
46608;DHT22;32330;51.936;7.184;2023-02-18T18:50:27;10.40;99.90
46608;DHT22;32330;51.936;7.184;2023-02-18T18:52:54;10.40;99.90
46608;DHT22;32330;51.936;7.184;2023-02-18T18:55:28;10.40;99.90
46608;DHT22;32330;51.936;7.184;2023-02-18T18:57:58;10.40;99.90
46608;DHT22;32330;51.936;7.184;2023-02-18T19:00:26;10.40;99.90
46608;DHT22;32330;51.936;7.184;2023-02-18T19:02:54;10.40;99.90
46608;DHT22;32330;51.936;7.184;2023-02-18T19:05:25;10.40;99.90
46608;DHT22;32330;51.936;7.184;2023-02-18T19:07:53;10.40;99.90
46608;DHT22;32330;51.936;7.184;2023-02-18T19:10:20;10.30;99.90
46608;DHT22;32330;51.936;7.184;2023-02-18T19:12:48;10.30;99.90
46608;DHT22;32330;51.936;7.184;2023-02-18T19:15:18;10.30;99.90
46608;DHT22;32330;51.936;7.184;2023-02-18T19:17:48;10.30;99.90
46608;DHT22;32330;51.936;7.184;2023-02-18T19:20:17;10.30;99.90
46608;DHT22;32330;51.936;7.184;2023-02-18T19:22:44;10.30;99.90
46608;DHT22;32330;51.936;7.184;2023-02-18T19:25:11;10.40;99.90
46608;DHT22;32330;51.936;7.184;2023-02-18T19:27:40;10.30;99.90
46608;DHT22;32330;51.936;7.184;2023-02-18T19:30:10;10.30;99.90
46608;DHT22;32330;51.936;7.184;2023-02-18T19:32:40;10.30;99.90
46608;DHT22;32330;51.936;7.184;2023-02-18T19:35:07;10.40;99.90
46608;DHT22;32330;51.936;7.184;2023-02-18T19:37:35;10.30;99.90
46608;DHT22;32330;51.936;7.184;2023-02-18T19:40:07;10.30;99.90
46608;DHT22;32330;51.936;7.184;2023-02-18T19:42:34;10.30;99.90
46608;DHT22;32330;51.936;7.184;2023-02-18T19:45:01;10.30;99.90
46608;DHT22;32330;51.936;7.184;2023-02-18T19:47:29;10.30;99.90
46608;DHT22;32330;51.936;7.184;2023-02-18T19:49:58;10.30;99.90
46608;DHT22;32330;51.936;7.184;2023-02-18T19:52:26;10.30;99.90
46608;DHT22;32330;51.936;7.184;2023-02-18T19:54:54;10.20;99.90
46608;DHT22;32330;51.936;7.184;2023-02-18T19:57:21;10.30;99.90
46608;DHT22;32330;51.936;7.184;2023-02-18T19:59:48;10.30;99.90
46608;DHT22;32330;51.936;7.184;2023-02-18T20:02:18;10.30;99.90
46608;DHT22;32330;51.936;7.184;2023-02-18T20:04:46;10.30;99.90
46608;DHT22;32330;51.936;7.184;2023-02-18T20:07:16;10.30;99.90
46608;DHT22;32330;51.936;7.184;2023-02-18T20:09:44;10.30;99.90
46608;DHT22;32330;51.936;7.184;2023-02-18T20:12:12;10.30;99.90
46608;DHT22;32330;51.936;7.184;2023-02-18T20:14:40;10.30;99.90
46608;DHT22;32330;51.936;7.184;2023-02-18T20:17:08;10.30;99.90
46608;DHT22;32330;51.936;7.184;2023-02-18T20:19:36;10.30;99.90
46608;DHT22;32330;51.936;7.184;2023-02-18T20:22:03;10.30;99.90
46608;DHT22;32330;51.936;7.184;2023-02-18T20:24:33;10.30;99.90
46608;DHT22;32330;51.936;7.184;2023-02-18T20:27:01;10.30;99.90
46608;DHT22;32330;51.936;7.184;2023-02-18T20:29:29;10.30;99.90
46608;DHT22;32330;51.936;7.184;2023-02-18T20:31:58;10.30;99.90
46608;DHT22;32330;51.936;7.184;2023-02-18T20:34:26;10.30;99.90
46608;DHT22;32330;51.936;7.184;2023-02-18T20:36:53;10.20;99.90
46608;DHT22;32330;51.936;7.184;2023-02-18T20:39:20;10.20;99.90
46608;DHT22;32330;51.936;7.184;2023-02-18T20:41:50;10.20;99.90
46608;DHT22;32330;51.936;7.184;2023-02-18T20:44:20;10.20;99.90
46608;DHT22;32330;51.936;7.184;2023-02-18T20:46:49;10.20;99.90
46608;DHT22;32330;51.936;7.184;2023-02-18T20:49:19;10.20;99.90
46608;DHT22;32330;51.936;7.184;2023-02-18T20:51:46;10.20;99.90
46608;DHT22;32330;51.936;7.184;2023-02-18T20:54:15;10.20;99.90
46608;DHT22;32330;51.936;7.184;2023-02-18T20:56:45;10.20;99.90
46608;DHT22;32330;51.936;7.184;2023-02-18T20:59:16;10.20;99.90
46608;DHT22;32330;51.936;7.184;2023-02-18T21:01:44;10.20;99.90